sensor_id;sensor_type;location;lat;lon;timestamp;P1;durP1;ratioP1;P2;durP2;ratioP2
912;SDS011;443;51.448;7.028;2022-09-29T00:00:52;5.13;;;4.23;;
912;SDS011;443;51.448;7.028;2022-09-29T00:03:19;5.17;;;4.67;;
912;SDS011;443;51.448;7.028;2022-09-29T00:05:47;4.77;;;4.23;;
912;SDS011;443;51.448;7.028;2022-09-29T00:08:15;5.33;;;4.63;;
912;SDS011;443;51.448;7.028;2022-09-29T00:10:44;5.27;;;4.70;;
912;SDS011;443;51.448;7.028;2022-09-29T00:13:12;5.93;;;4.27;;
912;SDS011;443;51.448;7.028;2022-09-29T00:15:39;6.00;;;4.63;;
912;SDS011;443;51.448;7.028;2022-09-29T00:18:06;4.57;;;3.83;;
912;SDS011;443;51.448;7.028;2022-09-29T00:20:33;5.20;;;4.70;;
912;SDS011;443;51.448;7.028;2022-09-29T00:23:00;4.77;;;3.90;;
912;SDS011;443;51.448;7.028;2022-09-29T00:25:27;5.60;;;4.57;;
912;SDS011;443;51.448;7.028;2022-09-29T00:27:56;4.20;;;3.60;;
912;SDS011;443;51.448;7.028;2022-09-29T00:30:22;6.10;;;5.50;;
912;SDS011;443;51.448;7.028;2022-09-29T00:32:49;6.73;;;4.40;;
912;SDS011;443;51.448;7.028;2022-09-29T00:35:16;7.23;;;4.70;;
912;SDS011;443;51.448;7.028;2022-09-29T00:37:43;6.73;;;3.97;;
912;SDS011;443;51.448;7.028;2022-09-29T00:40:10;5.20;;;4.07;;
912;SDS011;443;51.448;7.028;2022-09-29T00:42:37;4.73;;;3.83;;
912;SDS011;443;51.448;7.028;2022-09-29T00:45:11;5.37;;;4.20;;
912;SDS011;443;51.448;7.028;2022-09-29T00:47:41;5.57;;;4.20;;
912;SDS011;443;51.448;7.028;2022-09-29T00:50:12;4.60;;;4.00;;
912;SDS011;443;51.448;7.028;2022-09-29T00:52:43;3.97;;;3.57;;
912;SDS011;443;51.448;7.028;2022-09-29T00:55:13;5.73;;;4.00;;
912;SDS011;443;51.448;7.028;2022-09-29T00:57:43;5.47;;;4.83;;
912;SDS011;443;51.448;7.028;2022-09-29T01:00:16;5.83;;;4.23;;
912;SDS011;443;51.448;7.028;2022-09-29T01:02:44;6.23;;;4.50;;
912;SDS011;443;51.448;7.028;2022-09-29T01:05:16;5.20;;;4.50;;
912;SDS011;443;51.448;7.028;2022-09-29T01:07:50;5.23;;;3.60;;
912;SDS011;443;51.448;7.028;2022-09-29T01:10:18;5.47;;;4.77;;
912;SDS011;443;51.448;7.028;2022-09-29T01:12:45;7.60;;;6.93;;
912;SDS011;443;51.448;7.028;2022-09-29T01:15:14;8.23;;;4.30;;
912;SDS011;443;51.448;7.028;2022-09-29T01:17:44;5.90;;;4.23;;
912;SDS011;443;51.448;7.028;2022-09-29T01:20:13;5.77;;;4.40;;
912;SDS011;443;51.448;7.028;2022-09-29T01:22:51;9.60;;;4.60;;
912;SDS011;443;51.448;7.028;2022-09-29T01:31:48;5.40;;;3.87;;
912;SDS011;443;51.448;7.028;2022-09-29T01:34:22;6.43;;;4.70;;
912;SDS011;443;51.448;7.028;2022-09-29T01:37:00;8.13;;;4.23;;
912;SDS011;443;51.448;7.028;2022-09-29T01:39:36;5.33;;;4.73;;
912;SDS011;443;51.448;7.028;2022-09-29T01:42:07;5.00;;;4.50;;
912;SDS011;443;51.448;7.028;2022-09-29T01:44:39;5.67;;;5.03;;
912;SDS011;443;51.448;7.028;2022-09-29T01:47:11;7.37;;;5.03;;
912;SDS011;443;51.448;7.028;2022-09-29T01:49:42;4.53;;;3.80;;
912;SDS011;443;51.448;7.028;2022-09-29T01:52:12;4.70;;;3.83;;
912;SDS011;443;51.448;7.028;2022-09-29T01:54:43;5.23;;;4.57;;
912;SDS011;443;51.448;7.028;2022-09-29T01:57:14;4.77;;;3.70;;
912;SDS011;443;51.448;7.028;2022-09-29T01:59:46;6.20;;;4.27;;
912;SDS011;443;51.448;7.028;2022-09-29T02:02:19;5.77;;;4.13;;
912;SDS011;443;51.448;7.028;2022-09-29T02:04:52;6.87;;;4.13;;
912;SDS011;443;51.448;7.028;2022-09-29T02:07:23;7.37;;;4.80;;
912;SDS011;443;51.448;7.028;2022-09-29T02:09:56;5.47;;;4.60;;
912;SDS011;443;51.448;7.028;2022-09-29T02:12:27;8.87;;;4.37;;
912;SDS011;443;51.448;7.028;2022-09-29T02:14:58;8.47;;;5.80;;
912;SDS011;443;51.448;7.028;2022-09-29T02:17:30;7.20;;;4.77;;
912;SDS011;443;51.448;7.028;2022-09-29T02:20:00;8.93;;;5.17;;
912;SDS011;443;51.448;7.028;2022-09-29T02:22:28;6.30;;;4.23;;
912;SDS011;443;51.448;7.028;2022-09-29T02:24:55;5.47;;;4.90;;
912;SDS011;443;51.448;7.028;2022-09-29T02:27:25;5.63;;;4.40;;
912;SDS011;443;51.448;7.028;2022-09-29T02:29:53;7.83;;;5.17;;
912;SDS011;443;51.448;7.028;2022-09-29T02:32:21;6.73;;;4.73;;
912;SDS011;443;51.448;7.028;2022-09-29T02:34:49;6.80;;;5.20;;
912;SDS011;443;51.448;7.028;2022-09-29T02:40:12;5.53;;;3.90;;
912;SDS011;443;51.448;7.028;2022-09-29T02:42:52;6.90;;;4.17;;
912;SDS011;443;51.448;7.028;2022-09-29T02:45:32;5.00;;;4.37;;
912;SDS011;443;51.448;7.028;2022-09-29T02:48:08;4.67;;;4.13;;
912;SDS011;443;51.448;7.028;2022-09-29T02:50:50;4.80;;;4.03;;
912;SDS011;443;51.448;7.028;2022-09-29T02:53:25;5.03;;;3.90;;
912;SDS011;443;51.448;7.028;2022-09-29T02:56:02;6.80;;;4.47;;
912;SDS011;443;51.448;7.028;2022-09-29T02:58:34;7.70;;;4.50;;
912;SDS011;443;51.448;7.028;2022-09-29T03:01:04;6.37;;;5.00;;
912;SDS011;443;51.448;7.028;2022-09-29T03:03:32;5.90;;;4.03;;
912;SDS011;443;51.448;7.028;2022-09-29T03:06:00;5.10;;;4.60;;
912;SDS011;443;51.448;7.028;2022-09-29T03:08:27;5.33;;;4.33;;
912;SDS011;443;51.448;7.028;2022-09-29T03:10:54;8.60;;;5.67;;
912;SDS011;443;51.448;7.028;2022-09-29T03:13:20;4.30;;;3.67;;
912;SDS011;443;51.448;7.028;2022-09-29T03:15:47;5.00;;;4.27;;
912;SDS011;443;51.448;7.028;2022-09-29T03:18:14;6.93;;;4.60;;
912;SDS011;443;51.448;7.028;2022-09-29T03:20:41;8.30;;;5.20;;
912;SDS011;443;51.448;7.028;2022-09-29T03:23:09;5.13;;;4.60;;
912;SDS011;443;51.448;7.028;2022-09-29T03:25:36;6.33;;;4.47;;
912;SDS011;443;51.448;7.028;2022-09-29T03:28:02;7.80;;;5.43;;
912;SDS011;443;51.448;7.028;2022-09-29T03:30:29;8.90;;;4.73;;
912;SDS011;443;51.448;7.028;2022-09-29T03:32:56;6.17;;;5.00;;
912;SDS011;443;51.448;7.028;2022-09-29T03:35:23;4.53;;;4.10;;
912;SDS011;443;51.448;7.028;2022-09-29T03:37:49;5.20;;;4.43;;
912;SDS011;443;51.448;7.028;2022-09-29T03:40:19;4.33;;;3.93;;
912;SDS011;443;51.448;7.028;2022-09-29T03:42:45;8.30;;;3.87;;
912;SDS011;443;51.448;7.028;2022-09-29T03:45:12;5.40;;;4.03;;
912;SDS011;443;51.448;7.028;2022-09-29T03:47:39;5.07;;;4.10;;
912;SDS011;443;51.448;7.028;2022-09-29T03:50:06;5.53;;;3.97;;
912;SDS011;443;51.448;7.028;2022-09-29T03:52:33;4.60;;;4.03;;
912;SDS011;443;51.448;7.028;2022-09-29T03:55:00;6.33;;;4.57;;
912;SDS011;443;51.448;7.028;2022-09-29T03:57:28;4.17;;;3.30;;
912;SDS011;443;51.448;7.028;2022-09-29T03:59:55;5.20;;;3.80;;
912;SDS011;443;51.448;7.028;2022-09-29T04:02:22;5.30;;;4.30;;
912;SDS011;443;51.448;7.028;2022-09-29T04:04:49;5.03;;;4.03;;
912;SDS011;443;51.448;7.028;2022-09-29T04:07:15;5.13;;;4.60;;
912;SDS011;443;51.448;7.028;2022-09-29T04:09:42;4.70;;;3.67;;
912;SDS011;443;51.448;7.028;2022-09-29T04:12:09;4.77;;;4.27;;
912;SDS011;443;51.448;7.028;2022-09-29T04:14:37;5.73;;;4.60;;
912;SDS011;443;51.448;7.028;2022-09-29T04:17:04;9.97;;;4.03;;
912;SDS011;443;51.448;7.028;2022-09-29T04:19:31;4.47;;;3.70;;
912;SDS011;443;51.448;7.028;2022-09-29T04:21:57;8.93;;;4.70;;
912;SDS011;443;51.448;7.028;2022-09-29T04:24:24;4.93;;;3.50;;
912;SDS011;443;51.448;7.028;2022-09-29T04:26:51;4.33;;;3.50;;
912;SDS011;443;51.448;7.028;2022-09-29T04:29:18;5.20;;;4.10;;
912;SDS011;443;51.448;7.028;2022-09-29T04:31:46;5.83;;;4.60;;
912;SDS011;443;51.448;7.028;2022-09-29T04:34:13;5.10;;;4.60;;
912;SDS011;443;51.448;7.028;2022-09-29T04:36:39;4.47;;;3.50;;
912;SDS011;443;51.448;7.028;2022-09-29T04:39:06;4.00;;;3.60;;
912;SDS011;443;51.448;7.028;2022-09-29T04:41:33;7.30;;;4.50;;
912;SDS011;443;51.448;7.028;2022-09-29T04:44:03;4.77;;;4.27;;
912;SDS011;443;51.448;7.028;2022-09-29T04:46:31;5.93;;;4.37;;
912;SDS011;443;51.448;7.028;2022-09-29T04:48:59;5.40;;;4.90;;
912;SDS011;443;51.448;7.028;2022-09-29T04:51:26;4.90;;;4.23;;
912;SDS011;443;51.448;7.028;2022-09-29T04:53:52;4.70;;;3.87;;
912;SDS011;443;51.448;7.028;2022-09-29T04:56:19;4.83;;;4.40;;
912;SDS011;443;51.448;7.028;2022-09-29T04:58:46;5.27;;;4.20;;
912;SDS011;443;51.448;7.028;2022-09-29T05:01:13;4.23;;;3.83;;
912;SDS011;443;51.448;7.028;2022-09-29T05:03:41;4.33;;;3.70;;
912;SDS011;443;51.448;7.028;2022-09-29T05:06:09;5.47;;;4.70;;
912;SDS011;443;51.448;7.028;2022-09-29T05:08:36;4.90;;;3.63;;
912;SDS011;443;51.448;7.028;2022-09-29T05:11:03;5.87;;;4.13;;
912;SDS011;443;51.448;7.028;2022-09-29T05:13:30;6.33;;;4.67;;
912;SDS011;443;51.448;7.028;2022-09-29T05:15:57;7.50;;;4.93;;
912;SDS011;443;51.448;7.028;2022-09-29T05:18:25;4.93;;;3.73;;
912;SDS011;443;51.448;7.028;2022-09-29T05:20:52;5.07;;;3.30;;
912;SDS011;443;51.448;7.028;2022-09-29T05:23:20;4.60;;;3.20;;
912;SDS011;443;51.448;7.028;2022-09-29T05:25:47;4.63;;;4.13;;
912;SDS011;443;51.448;7.028;2022-09-29T05:28:14;4.93;;;4.43;;
912;SDS011;443;51.448;7.028;2022-09-29T05:30:41;8.40;;;4.90;;
912;SDS011;443;51.448;7.028;2022-09-29T05:33:08;5.63;;;4.17;;
912;SDS011;443;51.448;7.028;2022-09-29T05:35:35;6.90;;;5.00;;
912;SDS011;443;51.448;7.028;2022-09-29T05:38:02;4.50;;;3.97;;
912;SDS011;443;51.448;7.028;2022-09-29T05:40:30;4.83;;;4.20;;
912;SDS011;443;51.448;7.028;2022-09-29T05:42:57;4.40;;;3.80;;
912;SDS011;443;51.448;7.028;2022-09-29T05:45:24;5.33;;;4.83;;
912;SDS011;443;51.448;7.028;2022-09-29T05:47:51;5.13;;;4.53;;
912;SDS011;443;51.448;7.028;2022-09-29T05:50:18;5.37;;;4.83;;
912;SDS011;443;51.448;7.028;2022-09-29T05:52:46;4.70;;;4.20;;
912;SDS011;443;51.448;7.028;2022-09-29T05:55:13;5.40;;;4.90;;
912;SDS011;443;51.448;7.028;2022-09-29T05:57:42;4.00;;;3.60;;
912;SDS011;443;51.448;7.028;2022-09-29T06:00:12;5.80;;;4.50;;
912;SDS011;443;51.448;7.028;2022-09-29T06:02:39;5.70;;;4.80;;
912;SDS011;443;51.448;7.028;2022-09-29T06:05:06;6.20;;;4.67;;
912;SDS011;443;51.448;7.028;2022-09-29T06:07:33;5.80;;;4.97;;
912;SDS011;443;51.448;7.028;2022-09-29T06:09:59;9.70;;;5.00;;
912;SDS011;443;51.448;7.028;2022-09-29T06:12:26;8.23;;;6.40;;
912;SDS011;443;51.448;7.028;2022-09-29T06:14:54;16.67;;;8.67;;
912;SDS011;443;51.448;7.028;2022-09-29T06:17:21;13.43;;;10.30;;
912;SDS011;443;51.448;7.028;2022-09-29T06:19:48;11.37;;;6.60;;
912;SDS011;443;51.448;7.028;2022-09-29T06:22:15;11.47;;;7.50;;
912;SDS011;443;51.448;7.028;2022-09-29T06:24:41;8.03;;;5.43;;
912;SDS011;443;51.448;7.028;2022-09-29T06:27:08;13.00;;;7.60;;
912;SDS011;443;51.448;7.028;2022-09-29T06:29:36;7.93;;;6.43;;
912;SDS011;443;51.448;7.028;2022-09-29T06:32:04;8.10;;;6.20;;
912;SDS011;443;51.448;7.028;2022-09-29T06:34:31;9.30;;;7.87;;
912;SDS011;443;51.448;7.028;2022-09-29T06:36:57;7.80;;;5.73;;
912;SDS011;443;51.448;7.028;2022-09-29T06:39:42;7.80;;;5.60;;
912;SDS011;443;51.448;7.028;2022-09-29T06:42:08;7.00;;;5.10;;
912;SDS011;443;51.448;7.028;2022-09-29T06:44:35;7.37;;;5.90;;
912;SDS011;443;51.448;7.028;2022-09-29T06:47:04;9.00;;;6.10;;
912;SDS011;443;51.448;7.028;2022-09-29T06:49:30;9.77;;;5.60;;
912;SDS011;443;51.448;7.028;2022-09-29T06:51:57;6.97;;;6.30;;
912;SDS011;443;51.448;7.028;2022-09-29T06:54:24;8.93;;;6.57;;
912;SDS011;443;51.448;7.028;2022-09-29T06:56:51;7.80;;;6.37;;
912;SDS011;443;51.448;7.028;2022-09-29T06:59:19;6.30;;;5.70;;
912;SDS011;443;51.448;7.028;2022-09-29T07:01:46;8.80;;;6.37;;
912;SDS011;443;51.448;7.028;2022-09-29T07:04:15;9.73;;;6.50;;
912;SDS011;443;51.448;7.028;2022-09-29T07:06:42;8.07;;;5.70;;
912;SDS011;443;51.448;7.028;2022-09-29T07:09:10;6.50;;;5.60;;
912;SDS011;443;51.448;7.028;2022-09-29T07:11:40;6.23;;;5.33;;
912;SDS011;443;51.448;7.028;2022-09-29T07:14:10;8.40;;;5.20;;
912;SDS011;443;51.448;7.028;2022-09-29T07:16:37;7.30;;;6.07;;
912;SDS011;443;51.448;7.028;2022-09-29T07:19:04;6.73;;;5.80;;
912;SDS011;443;51.448;7.028;2022-09-29T07:21:32;6.43;;;5.63;;
912;SDS011;443;51.448;7.028;2022-09-29T07:23:59;6.70;;;5.80;;
912;SDS011;443;51.448;7.028;2022-09-29T07:26:26;6.40;;;4.70;;
912;SDS011;443;51.448;7.028;2022-09-29T07:28:53;6.10;;;5.43;;
912;SDS011;443;51.448;7.028;2022-09-29T07:31:20;6.90;;;5.90;;
912;SDS011;443;51.448;7.028;2022-09-29T07:33:48;6.00;;;5.40;;
912;SDS011;443;51.448;7.028;2022-09-29T07:36:17;6.20;;;5.03;;
912;SDS011;443;51.448;7.028;2022-09-29T07:38:46;7.00;;;5.63;;
912;SDS011;443;51.448;7.028;2022-09-29T07:41:14;6.87;;;5.47;;
912;SDS011;443;51.448;7.028;2022-09-29T07:43:42;7.20;;;5.40;;
912;SDS011;443;51.448;7.028;2022-09-29T07:46:09;7.60;;;5.87;;
912;SDS011;443;51.448;7.028;2022-09-29T07:48:36;7.50;;;5.73;;
912;SDS011;443;51.448;7.028;2022-09-29T07:51:05;6.53;;;5.13;;
912;SDS011;443;51.448;7.028;2022-09-29T07:53:33;5.67;;;4.70;;
912;SDS011;443;51.448;7.028;2022-09-29T07:56:02;7.50;;;4.60;;
912;SDS011;443;51.448;7.028;2022-09-29T07:58:30;8.10;;;6.50;;
912;SDS011;443;51.448;7.028;2022-09-29T08:00:57;6.83;;;5.03;;
912;SDS011;443;51.448;7.028;2022-09-29T08:03:24;5.43;;;4.90;;
912;SDS011;443;51.448;7.028;2022-09-29T08:05:51;11.13;;;5.43;;
912;SDS011;443;51.448;7.028;2022-09-29T08:08:18;5.10;;;4.53;;
912;SDS011;443;51.448;7.028;2022-09-29T08:10:45;7.97;;;5.63;;
912;SDS011;443;51.448;7.028;2022-09-29T08:13:13;6.57;;;5.57;;
912;SDS011;443;51.448;7.028;2022-09-29T08:15:41;5.27;;;4.30;;
912;SDS011;443;51.448;7.028;2022-09-29T08:18:07;5.73;;;4.73;;
912;SDS011;443;51.448;7.028;2022-09-29T08:20:34;6.83;;;5.47;;
912;SDS011;443;51.448;7.028;2022-09-29T08:23:01;9.67;;;5.47;;
912;SDS011;443;51.448;7.028;2022-09-29T08:25:28;14.53;;;5.60;;
912;SDS011;443;51.448;7.028;2022-09-29T08:27:55;5.43;;;4.73;;
912;SDS011;443;51.448;7.028;2022-09-29T08:30:23;6.63;;;4.90;;
912;SDS011;443;51.448;7.028;2022-09-29T08:32:50;5.70;;;4.73;;
912;SDS011;443;51.448;7.028;2022-09-29T08:35:17;5.70;;;4.00;;
912;SDS011;443;51.448;7.028;2022-09-29T08:37:44;4.20;;;3.83;;
912;SDS011;443;51.448;7.028;2022-09-29T08:40:11;8.20;;;4.03;;
912;SDS011;443;51.448;7.028;2022-09-29T08:42:42;6.03;;;4.70;;
912;SDS011;443;51.448;7.028;2022-09-29T08:45:17;3.87;;;3.43;;
912;SDS011;443;51.448;7.028;2022-09-29T08:47:50;6.70;;;4.40;;
912;SDS011;443;51.448;7.028;2022-09-29T08:50:23;5.47;;;3.50;;
912;SDS011;443;51.448;7.028;2022-09-29T08:52:54;3.50;;;3.20;;
912;SDS011;443;51.448;7.028;2022-09-29T08:55:27;5.00;;;3.57;;
912;SDS011;443;51.448;7.028;2022-09-29T08:58:06;4.23;;;3.63;;
912;SDS011;443;51.448;7.028;2022-09-29T09:00:37;5.07;;;4.57;;
912;SDS011;443;51.448;7.028;2022-09-29T09:03:13;3.17;;;2.80;;
912;SDS011;443;51.448;7.028;2022-09-29T09:09:04;4.50;;;2.50;;
912;SDS011;443;51.448;7.028;2022-09-29T09:11:55;7.80;;;4.17;;
912;SDS011;443;51.448;7.028;2022-09-29T09:14:39;5.33;;;3.27;;
912;SDS011;443;51.448;7.028;2022-09-29T09:17:22;4.07;;;2.80;;
912;SDS011;443;51.448;7.028;2022-09-29T09:20:01;4.67;;;3.23;;
912;SDS011;443;51.448;7.028;2022-09-29T09:22:40;3.17;;;2.50;;
912;SDS011;443;51.448;7.028;2022-09-29T09:25:18;4.47;;;3.67;;
912;SDS011;443;51.448;7.028;2022-09-29T09:27:51;2.50;;;2.30;;
912;SDS011;443;51.448;7.028;2022-09-29T09:30:30;2.80;;;2.50;;
912;SDS011;443;51.448;7.028;2022-09-29T09:33:05;2.17;;;1.93;;
912;SDS011;443;51.448;7.028;2022-09-29T09:35:40;3.93;;;3.13;;
912;SDS011;443;51.448;7.028;2022-09-29T09:38:11;2.60;;;2.37;;
912;SDS011;443;51.448;7.028;2022-09-29T09:40:42;6.00;;;2.87;;
912;SDS011;443;51.448;7.028;2022-09-29T09:43:13;5.37;;;3.20;;
912;SDS011;443;51.448;7.028;2022-09-29T09:45:44;2.97;;;2.67;;
912;SDS011;443;51.448;7.028;2022-09-29T09:48:17;3.83;;;2.90;;
912;SDS011;443;51.448;7.028;2022-09-29T09:50:48;6.27;;;4.00;;
912;SDS011;443;51.448;7.028;2022-09-29T09:53:18;4.30;;;3.40;;
912;SDS011;443;51.448;7.028;2022-09-29T09:55:49;4.27;;;3.10;;
912;SDS011;443;51.448;7.028;2022-09-29T09:58:27;5.17;;;3.20;;
912;SDS011;443;51.448;7.028;2022-09-29T10:01:20;9.00;;;3.60;;
912;SDS011;443;51.448;7.028;2022-09-29T10:03:47;3.20;;;2.47;;
912;SDS011;443;51.448;7.028;2022-09-29T10:06:15;4.83;;;2.40;;
912;SDS011;443;51.448;7.028;2022-09-29T10:08:42;2.70;;;2.43;;
912;SDS011;443;51.448;7.028;2022-09-29T10:11:12;3.03;;;2.73;;
912;SDS011;443;51.448;7.028;2022-09-29T10:13:47;4.30;;;3.23;;
912;SDS011;443;51.448;7.028;2022-09-29T10:16:18;2.60;;;2.40;;
912;SDS011;443;51.448;7.028;2022-09-29T10:18:50;2.90;;;2.23;;
912;SDS011;443;51.448;7.028;2022-09-29T10:21:19;3.60;;;1.83;;
912;SDS011;443;51.448;7.028;2022-09-29T10:23:49;2.50;;;1.90;;
912;SDS011;443;51.448;7.028;2022-09-29T10:26:16;3.80;;;1.50;;
912;SDS011;443;51.448;7.028;2022-09-29T10:28:50;2.63;;;1.83;;
912;SDS011;443;51.448;7.028;2022-09-29T10:31:20;3.27;;;1.40;;
912;SDS011;443;51.448;7.028;2022-09-29T10:33:49;2.80;;;1.60;;
912;SDS011;443;51.448;7.028;2022-09-29T10:36:19;3.23;;;2.20;;
912;SDS011;443;51.448;7.028;2022-09-29T10:38:48;2.00;;;1.63;;
912;SDS011;443;51.448;7.028;2022-09-29T10:41:17;2.57;;;1.97;;
912;SDS011;443;51.448;7.028;2022-09-29T10:43:45;2.10;;;1.90;;
912;SDS011;443;51.448;7.028;2022-09-29T10:49:07;2.27;;;1.80;;
912;SDS011;443;51.448;7.028;2022-09-29T10:51:36;2.23;;;1.87;;
912;SDS011;443;51.448;7.028;2022-09-29T10:54:06;4.47;;;2.80;;
912;SDS011;443;51.448;7.028;2022-09-29T10:56:33;4.40;;;1.90;;
912;SDS011;443;51.448;7.028;2022-09-29T10:59:00;5.70;;;1.73;;
912;SDS011;443;51.448;7.028;2022-09-29T11:01:29;2.57;;;2.03;;
912;SDS011;443;51.448;7.028;2022-09-29T11:03:59;2.33;;;2.03;;
912;SDS011;443;51.448;7.028;2022-09-29T11:06:28;3.70;;;1.70;;
912;SDS011;443;51.448;7.028;2022-09-29T11:08:59;2.53;;;2.03;;
912;SDS011;443;51.448;7.028;2022-09-29T11:11:28;2.03;;;1.53;;
912;SDS011;443;51.448;7.028;2022-09-29T11:13:57;2.70;;;1.60;;
912;SDS011;443;51.448;7.028;2022-09-29T11:16:26;2.33;;;1.70;;
912;SDS011;443;51.448;7.028;2022-09-29T11:18:54;1.67;;;1.57;;
912;SDS011;443;51.448;7.028;2022-09-29T11:27:28;3.00;;;1.20;;
912;SDS011;443;51.448;7.028;2022-09-29T11:30:05;2.27;;;1.43;;
912;SDS011;443;51.448;7.028;2022-09-29T11:32:42;2.13;;;1.73;;
912;SDS011;443;51.448;7.028;2022-09-29T11:35:25;8.23;;;1.67;;
912;SDS011;443;51.448;7.028;2022-09-29T11:38:07;1.60;;;1.33;;
912;SDS011;443;51.448;7.028;2022-09-29T11:40:52;2.00;;;1.30;;
912;SDS011;443;51.448;7.028;2022-09-29T11:43:32;1.93;;;1.33;;
912;SDS011;443;51.448;7.028;2022-09-29T11:46:14;1.30;;;1.07;;
912;SDS011;443;51.448;7.028;2022-09-29T11:49:07;1.27;;;1.13;;
912;SDS011;443;51.448;7.028;2022-09-29T11:52:01;2.67;;;1.17;;
912;SDS011;443;51.448;7.028;2022-09-29T11:54:47;2.00;;;1.30;;
912;SDS011;443;51.448;7.028;2022-09-29T11:57:32;2.10;;;1.23;;
912;SDS011;443;51.448;7.028;2022-09-29T12:00:09;2.40;;;1.07;;
912;SDS011;443;51.448;7.028;2022-09-29T12:02:42;2.27;;;1.30;;
912;SDS011;443;51.448;7.028;2022-09-29T12:05:50;3.13;;;1.27;;
912;SDS011;443;51.448;7.028;2022-09-29T12:08:45;3.40;;;1.60;;
912;SDS011;443;51.448;7.028;2022-09-29T12:11:22;1.60;;;1.17;;
912;SDS011;443;51.448;7.028;2022-09-29T12:14:01;2.53;;;1.80;;
912;SDS011;443;51.448;7.028;2022-09-29T12:16:34;2.00;;;1.70;;
912;SDS011;443;51.448;7.028;2022-09-29T12:19:06;1.70;;;1.43;;
912;SDS011;443;51.448;7.028;2022-09-29T12:21:37;1.20;;;0.90;;
912;SDS011;443;51.448;7.028;2022-09-29T12:24:10;1.93;;;1.23;;
912;SDS011;443;51.448;7.028;2022-09-29T12:26:42;1.53;;;1.27;;
912;SDS011;443;51.448;7.028;2022-09-29T12:29:17;1.37;;;1.27;;
912;SDS011;443;51.448;7.028;2022-09-29T12:31:52;4.20;;;1.20;;
912;SDS011;443;51.448;7.028;2022-09-29T12:34:24;5.00;;;1.40;;
912;SDS011;443;51.448;7.028;2022-09-29T12:36:58;1.57;;;0.90;;
912;SDS011;443;51.448;7.028;2022-09-29T12:39:31;1.77;;;1.37;;
912;SDS011;443;51.448;7.028;2022-09-29T12:42:14;1.70;;;1.10;;
912;SDS011;443;51.448;7.028;2022-09-29T12:44:53;4.50;;;1.37;;
912;SDS011;443;51.448;7.028;2022-09-29T12:47:27;1.93;;;1.00;;
912;SDS011;443;51.448;7.028;2022-09-29T12:50:13;2.60;;;1.80;;
912;SDS011;443;51.448;7.028;2022-09-29T12:52:44;3.93;;;1.47;;
912;SDS011;443;51.448;7.028;2022-09-29T12:55:17;2.03;;;0.97;;
912;SDS011;443;51.448;7.028;2022-09-29T12:57:50;1.17;;;0.70;;
912;SDS011;443;51.448;7.028;2022-09-29T13:00:21;2.87;;;0.93;;
912;SDS011;443;51.448;7.028;2022-09-29T13:03:06;1.87;;;1.27;;
912;SDS011;443;51.448;7.028;2022-09-29T13:06:01;2.07;;;1.50;;
912;SDS011;443;51.448;7.028;2022-09-29T13:08:53;7.30;;;1.30;;
912;SDS011;443;51.448;7.028;2022-09-29T13:11:50;1.63;;;1.27;;
912;SDS011;443;51.448;7.028;2022-09-29T13:14:42;2.67;;;1.90;;
912;SDS011;443;51.448;7.028;2022-09-29T13:17:28;5.07;;;1.40;;
912;SDS011;443;51.448;7.028;2022-09-29T13:26:18;2.00;;;1.10;;
912;SDS011;443;51.448;7.028;2022-09-29T13:28:57;1.80;;;1.10;;
912;SDS011;443;51.448;7.028;2022-09-29T13:31:28;2.80;;;1.73;;
912;SDS011;443;51.448;7.028;2022-09-29T13:34:02;2.50;;;1.53;;
912;SDS011;443;51.448;7.028;2022-09-29T13:36:30;1.70;;;1.40;;
912;SDS011;443;51.448;7.028;2022-09-29T13:39:00;1.70;;;1.60;;
912;SDS011;443;51.448;7.028;2022-09-29T13:41:32;3.33;;;1.60;;
912;SDS011;443;51.448;7.028;2022-09-29T13:44:03;3.73;;;2.30;;
912;SDS011;443;51.448;7.028;2022-09-29T13:46:35;1.70;;;1.60;;
912;SDS011;443;51.448;7.028;2022-09-29T13:49:13;2.90;;;1.70;;
912;SDS011;443;51.448;7.028;2022-09-29T13:51:43;1.97;;;1.40;;
912;SDS011;443;51.448;7.028;2022-09-29T13:54:22;3.20;;;1.37;;
912;SDS011;443;51.448;7.028;2022-09-29T13:57:19;2.20;;;1.80;;
912;SDS011;443;51.448;7.028;2022-09-29T14:00:02;2.03;;;1.47;;
912;SDS011;443;51.448;7.028;2022-09-29T14:02:45;3.30;;;2.43;;
912;SDS011;443;51.448;7.028;2022-09-29T14:05:35;3.87;;;2.27;;
912;SDS011;443;51.448;7.028;2022-09-29T14:08:13;3.13;;;1.33;;
912;SDS011;443;51.448;7.028;2022-09-29T14:10:43;3.83;;;2.17;;
912;SDS011;443;51.448;7.028;2022-09-29T14:13:14;3.93;;;2.00;;
912;SDS011;443;51.448;7.028;2022-09-29T14:15:48;3.40;;;1.87;;
912;SDS011;443;51.448;7.028;2022-09-29T14:18:23;3.27;;;1.83;;
912;SDS011;443;51.448;7.028;2022-09-29T14:20:58;1.63;;;1.23;;
912;SDS011;443;51.448;7.028;2022-09-29T14:29:09;2.27;;;1.60;;
912;SDS011;443;51.448;7.028;2022-09-29T14:31:43;1.97;;;1.40;;
912;SDS011;443;51.448;7.028;2022-09-29T14:34:12;1.80;;;1.20;;
912;SDS011;443;51.448;7.028;2022-09-29T14:36:43;1.37;;;1.10;;
912;SDS011;443;51.448;7.028;2022-09-29T14:39:12;3.20;;;1.63;;
912;SDS011;443;51.448;7.028;2022-09-29T14:41:40;6.10;;;1.80;;
912;SDS011;443;51.448;7.028;2022-09-29T14:44:08;2.90;;;1.40;;
912;SDS011;443;51.448;7.028;2022-09-29T14:46:41;4.33;;;1.50;;
912;SDS011;443;51.448;7.028;2022-09-29T14:53:07;1.70;;;1.30;;
912;SDS011;443;51.448;7.028;2022-09-29T14:55:51;2.43;;;1.63;;
912;SDS011;443;51.448;7.028;2022-09-29T14:58:32;1.73;;;1.00;;
912;SDS011;443;51.448;7.028;2022-09-29T15:01:10;3.87;;;1.80;;
912;SDS011;443;51.448;7.028;2022-09-29T15:03:44;2.23;;;1.30;;
912;SDS011;443;51.448;7.028;2022-09-29T15:08:41;3.70;;;1.90;;
912;SDS011;443;51.448;7.028;2022-09-29T15:11:24;3.40;;;1.77;;
912;SDS011;443;51.448;7.028;2022-09-29T15:14:09;2.50;;;1.63;;
912;SDS011;443;51.448;7.028;2022-09-29T15:16:47;1.80;;;1.43;;
912;SDS011;443;51.448;7.028;2022-09-29T15:19:25;3.10;;;1.60;;
912;SDS011;443;51.448;7.028;2022-09-29T15:22:10;1.70;;;1.37;;
912;SDS011;443;51.448;7.028;2022-09-29T15:25:06;3.63;;;1.63;;
912;SDS011;443;51.448;7.028;2022-09-29T15:27:40;2.67;;;1.60;;
912;SDS011;443;51.448;7.028;2022-09-29T15:30:12;2.50;;;1.03;;
912;SDS011;443;51.448;7.028;2022-09-29T15:32:41;2.73;;;1.20;;
912;SDS011;443;51.448;7.028;2022-09-29T15:35:10;2.57;;;2.03;;
912;SDS011;443;51.448;7.028;2022-09-29T15:37:53;1.67;;;0.90;;
912;SDS011;443;51.448;7.028;2022-09-29T15:40:24;2.40;;;1.80;;
912;SDS011;443;51.448;7.028;2022-09-29T15:42:52;1.80;;;1.27;;
912;SDS011;443;51.448;7.028;2022-09-29T15:45:20;3.03;;;1.30;;
912;SDS011;443;51.448;7.028;2022-09-29T15:47:56;3.90;;;1.57;;
912;SDS011;443;51.448;7.028;2022-09-29T15:50:25;2.70;;;1.40;;
912;SDS011;443;51.448;7.028;2022-09-29T15:52:56;1.73;;;1.00;;
912;SDS011;443;51.448;7.028;2022-09-29T15:55:28;3.63;;;1.60;;
912;SDS011;443;51.448;7.028;2022-09-29T15:57:56;7.10;;;1.40;;
912;SDS011;443;51.448;7.028;2022-09-29T16:03:25;2.03;;;1.20;;
912;SDS011;443;51.448;7.028;2022-09-29T16:06:05;2.50;;;1.30;;
912;SDS011;443;51.448;7.028;2022-09-29T16:08:39;2.63;;;0.97;;
912;SDS011;443;51.448;7.028;2022-09-29T16:11:15;1.50;;;1.10;;
912;SDS011;443;51.448;7.028;2022-09-29T16:13:47;2.70;;;1.33;;
912;SDS011;443;51.448;7.028;2022-09-29T16:16:18;2.30;;;0.90;;
912;SDS011;443;51.448;7.028;2022-09-29T16:18:52;2.43;;;1.40;;
912;SDS011;443;51.448;7.028;2022-09-29T16:21:29;4.23;;;2.10;;
912;SDS011;443;51.448;7.028;2022-09-29T16:24:02;1.53;;;1.00;;
912;SDS011;443;51.448;7.028;2022-09-29T16:26:35;2.80;;;1.43;;
912;SDS011;443;51.448;7.028;2022-09-29T16:29:05;3.97;;;1.20;;
912;SDS011;443;51.448;7.028;2022-09-29T16:31:49;3.47;;;1.20;;
912;SDS011;443;51.448;7.028;2022-09-29T16:34:27;2.10;;;1.37;;
912;SDS011;443;51.448;7.028;2022-09-29T16:36:56;3.57;;;1.57;;
912;SDS011;443;51.448;7.028;2022-09-29T16:39:25;1.93;;;1.40;;
912;SDS011;443;51.448;7.028;2022-09-29T16:41:56;1.83;;;1.30;;
912;SDS011;443;51.448;7.028;2022-09-29T16:44:27;1.17;;;0.70;;
912;SDS011;443;51.448;7.028;2022-09-29T16:46:56;3.50;;;1.47;;
912;SDS011;443;51.448;7.028;2022-09-29T16:49:26;2.30;;;1.40;;
912;SDS011;443;51.448;7.028;2022-09-29T16:51:56;1.63;;;1.23;;
912;SDS011;443;51.448;7.028;2022-09-29T16:54:28;1.43;;;1.13;;